createdAt,value
2017-10-05T00:01:01.654Z,2.07
2017-10-05T00:03:30.572Z,2.07
2017-10-05T00:05:58.880Z,1.70
2017-10-05T00:08:27.233Z,2.83
2017-10-05T00:10:56.759Z,2.20
2017-10-05T00:13:25.829Z,1.87
2017-10-05T00:15:54.229Z,2.20
2017-10-05T00:18:22.588Z,2.33
2017-10-05T00:20:51.698Z,2.00
2017-10-05T00:23:20.016Z,2.17
2017-10-05T00:25:48.356Z,2.60
2017-10-05T00:28:16.658Z,2.20
2017-10-05T00:30:44.970Z,1.90
2017-10-05T00:33:14.087Z,2.13
2017-10-05T00:35:43.161Z,2.00
2017-10-05T00:38:11.471Z,2.13
2017-10-05T00:40:39.842Z,2.30
2017-10-05T00:43:08.909Z,1.90
2017-10-05T00:45:37.209Z,2.70
2017-10-05T00:48:05.578Z,2.67
2017-10-05T00:50:35.466Z,2.27
2017-10-05T00:53:03.781Z,2.10
2017-10-05T00:55:32.139Z,2.33
2017-10-05T00:58:00.552Z,2.07
2017-10-05T01:00:29.262Z,2.60
2017-10-05T01:02:57.604Z,1.93
2017-10-05T01:05:26.666Z,2.07
2017-10-05T01:07:54.970Z,2.40
2017-10-05T01:10:23.433Z,1.73
2017-10-05T01:12:51.745Z,2.43
2017-10-05T01:15:20.119Z,3.20
2017-10-05T01:17:48.836Z,1.90
2017-10-05T01:20:17.168Z,2.70
2017-10-05T01:22:45.462Z,2.33
2017-10-05T01:25:14.208Z,2.47
2017-10-05T01:27:43.318Z,2.30
2017-10-05T01:30:11.630Z,1.87
2017-10-05T01:32:40.006Z,2.23
2017-10-05T01:35:08.560Z,2.30
2017-10-05T01:37:36.918Z,2.80
2017-10-05T01:40:05.255Z,3.03
2017-10-05T01:42:33.558Z,3.53
2017-10-05T01:45:01.876Z,2.30
2017-10-05T01:47:30.241Z,2.50
2017-10-05T01:49:59.335Z,2.00
2017-10-05T01:52:27.640Z,2.37
2017-10-05T01:54:55.992Z,3.10
2017-10-05T01:57:25.089Z,2.20
2017-10-05T01:59:53.490Z,2.60
2017-10-05T02:02:23.418Z,3.10
2017-10-05T02:04:51.715Z,2.43
2017-10-05T02:07:20.049Z,2.10
2017-10-05T02:09:48.346Z,2.40
2017-10-05T02:12:16.681Z,2.00
2017-10-05T02:14:45.774Z,2.63
2017-10-05T02:17:14.075Z,2.70
2017-10-05T02:19:42.438Z,2.50
2017-10-05T02:22:11.828Z,3.37
2017-10-05T02:24:40.127Z,2.37
2017-10-05T02:27:08.448Z,2.43
2017-10-05T02:29:36.742Z,2.20
2017-10-05T02:32:05.935Z,2.73
2017-10-05T02:34:34.239Z,2.33
2017-10-05T02:37:02.639Z,2.43
2017-10-05T02:39:31.004Z,3.07
2017-10-05T02:41:59.375Z,3.27
2017-10-05T02:44:27.687Z,2.53
2017-10-05T02:46:56.026Z,2.50
2017-10-05T02:49:24.519Z,2.87
2017-10-05T02:51:53.580Z,2.23
2017-10-05T02:54:22.226Z,2.97
2017-10-05T02:56:50.549Z,2.43
2017-10-05T02:59:19.668Z,3.20
2017-10-05T03:01:48.748Z,2.17
2017-10-05T03:04:17.051Z,3.20
2017-10-05T03:06:45.404Z,2.33
2017-10-05T03:09:14.483Z,2.67
2017-10-05T03:11:43.073Z,2.27
2017-10-05T03:14:12.219Z,3.30
2017-10-05T03:16:40.563Z,2.10
2017-10-05T03:19:09.650Z,2.50
2017-10-05T03:21:37.983Z,3.13
2017-10-05T03:24:06.328Z,3.33
2017-10-05T03:26:34.652Z,2.60
2017-10-05T03:29:03.614Z,2.40
2017-10-05T03:31:31.911Z,2.30
2017-10-05T03:34:00.266Z,2.30
2017-10-05T03:36:28.606Z,2.40
2017-10-05T03:38:57.666Z,2.60
2017-10-05T03:41:25.965Z,2.00
2017-10-05T03:43:54.299Z,2.83
2017-10-05T03:46:22.653Z,3.57
2017-10-05T03:48:51.029Z,2.57
2017-10-05T03:51:20.094Z,2.80
2017-10-05T03:53:48.409Z,2.60
2017-10-05T03:56:16.704Z,2.43
2017-10-05T03:58:45.026Z,2.47
2017-10-05T04:01:13.374Z,2.40
2017-10-05T04:03:42.476Z,2.87
2017-10-05T04:06:10.799Z,2.27
2017-10-05T04:08:39.862Z,2.73
2017-10-05T04:11:08.230Z,1.90
2017-10-05T04:13:36.568Z,2.30
2017-10-05T04:16:04.883Z,3.40
2017-10-05T04:18:33.243Z,2.33
2017-10-05T04:21:01.777Z,2.57
2017-10-05T04:23:30.072Z,2.23
2017-10-05T04:25:58.400Z,2.70
2017-10-05T04:28:26.774Z,3.23
2017-10-05T04:30:55.074Z,2.20
2017-10-05T04:33:23.384Z,2.00
2017-10-05T04:35:51.717Z,2.10
2017-10-05T04:38:20.025Z,2.90
2017-10-05T04:40:48.317Z,2.30
2017-10-05T04:43:16.711Z,2.40
2017-10-05T04:45:45.779Z,2.93
2017-10-05T04:48:14.126Z,3.00
2017-10-05T04:50:43.226Z,2.33
2017-10-05T04:53:12.510Z,2.90
2017-10-05T04:55:40.858Z,2.40
2017-10-05T04:58:09.167Z,2.70
2017-10-05T05:00:38.054Z,3.17
2017-10-05T05:03:06.524Z,2.60
2017-10-05T05:05:35.649Z,2.37
2017-10-05T05:08:04.136Z,3.07
2017-10-05T05:10:33.222Z,2.80
2017-10-05T05:13:01.611Z,2.70
2017-10-05T05:15:29.972Z,2.43
2017-10-05T05:17:58.366Z,2.23
2017-10-05T05:20:26.720Z,2.63
2017-10-05T05:22:55.120Z,2.40
2017-10-05T05:25:24.243Z,3.20
2017-10-05T05:27:52.539Z,3.27
2017-10-05T05:30:21.637Z,2.27
2017-10-05T05:32:49.961Z,3.10
2017-10-05T05:35:19.061Z,1.70
2017-10-05T05:37:47.358Z,2.20
2017-10-05T05:40:15.670Z,2.03
2017-10-05T05:42:43.996Z,3.10
2017-10-05T05:45:12.298Z,2.73
2017-10-05T05:47:41.408Z,2.63
2017-10-05T05:50:09.849Z,2.07
2017-10-05T05:52:39.689Z,2.47
2017-10-05T05:55:08.015Z,2.40
2017-10-05T05:57:36.355Z,2.30
2017-10-05T06:00:04.700Z,2.50
2017-10-05T06:02:33.004Z,2.70
2017-10-05T06:05:01.328Z,2.93
2017-10-05T06:07:29.634Z,2.83
2017-10-05T06:09:57.997Z,2.13
2017-10-05T06:12:27.577Z,2.23
2017-10-05T06:14:55.945Z,1.80
2017-10-05T06:17:25.023Z,2.43
2017-10-05T06:19:53.366Z,2.27
2017-10-05T06:22:21.710Z,2.10
2017-10-05T06:24:50.030Z,2.00
2017-10-05T06:27:18.340Z,2.90
2017-10-05T06:29:46.686Z,2.60
2017-10-05T06:32:15.751Z,2.20
2017-10-05T06:34:44.057Z,1.93
2017-10-05T06:37:12.388Z,1.23
2017-10-05T06:39:40.673Z,2.40
2017-10-05T06:42:09.076Z,2.57
2017-10-05T06:44:37.424Z,1.97
2017-10-05T06:47:06.500Z,1.87
2017-10-05T06:49:34.853Z,1.60
2017-10-05T06:52:03.920Z,1.90
2017-10-05T06:54:32.225Z,1.90
2017-10-05T06:57:00.540Z,1.63
2017-10-05T06:59:28.891Z,1.63
2017-10-05T07:01:57.206Z,2.10
2017-10-05T07:04:25.504Z,1.60
2017-10-05T07:06:53.885Z,2.10
2017-10-05T07:09:22.941Z,1.10
2017-10-05T07:11:51.248Z,1.50
2017-10-05T07:14:19.572Z,2.07
2017-10-05T07:16:47.866Z,1.50
2017-10-05T07:19:16.542Z,1.90
2017-10-05T07:21:44.858Z,1.57
2017-10-05T07:24:13.704Z,1.40
2017-10-05T07:26:42.027Z,1.70
2017-10-05T07:29:10.340Z,1.83
2017-10-05T07:31:38.645Z,1.17
2017-10-05T07:34:09.647Z,2.20
2017-10-05T07:36:37.968Z,1.80
2017-10-05T07:39:07.153Z,2.10
2017-10-05T07:41:35.549Z,1.83
2017-10-05T07:44:03.963Z,1.60
2017-10-05T07:46:32.292Z,2.07
2017-10-05T07:49:01.361Z,2.17
2017-10-05T07:51:29.960Z,2.03
2017-10-05T07:53:59.023Z,1.80
2017-10-05T07:56:28.149Z,1.67
2017-10-05T07:58:56.460Z,1.70
2017-10-05T08:01:24.760Z,1.90
2017-10-05T08:03:53.078Z,1.70
2017-10-05T08:06:22.200Z,2.03
2017-10-05T08:08:51.293Z,3.30
2017-10-05T08:11:19.606Z,1.93
2017-10-05T08:13:48.006Z,2.00
2017-10-05T08:16:16.301Z,1.60
2017-10-05T08:18:45.436Z,1.93
2017-10-05T08:21:13.725Z,1.70
2017-10-05T08:23:42.041Z,1.90
2017-10-05T08:26:10.369Z,1.70
2017-10-05T08:28:38.682Z,1.50
2017-10-05T08:31:07.053Z,1.73
2017-10-05T08:33:35.362Z,2.30
2017-10-05T08:36:03.678Z,2.13
2017-10-05T08:38:31.996Z,2.40
2017-10-05T08:41:00.307Z,1.53
2017-10-05T08:43:28.629Z,1.70
2017-10-05T08:45:56.921Z,2.17
2017-10-05T08:48:26.017Z,1.80
2017-10-05T08:50:54.435Z,1.30
2017-10-05T08:53:22.737Z,1.63
2017-10-05T08:55:51.226Z,1.73
2017-10-05T08:58:20.329Z,2.40
2017-10-05T09:00:48.645Z,1.67
2017-10-05T09:03:16.963Z,1.90
2017-10-05T09:05:45.264Z,1.20
2017-10-05T09:08:13.582Z,1.60
2017-10-05T09:10:41.873Z,1.10
2017-10-05T09:13:10.204Z,1.40
2017-10-05T09:15:38.524Z,1.27
2017-10-05T09:18:07.629Z,1.30
2017-10-05T09:20:35.970Z,1.80
2017-10-05T09:23:04.641Z,1.10
2017-10-05T09:25:32.981Z,1.57
2017-10-05T09:28:02.037Z,1.60
2017-10-05T09:30:30.357Z,1.40
2017-10-05T09:32:58.670Z,1.47
2017-10-05T09:35:26.998Z,1.23
2017-10-05T09:37:56.049Z,1.70
2017-10-05T09:40:24.766Z,1.37
2017-10-05T09:42:53.160Z,1.37
2017-10-05T09:45:21.475Z,1.30
2017-10-05T09:47:49.829Z,1.20
2017-10-05T09:50:18.169Z,1.13
2017-10-05T09:52:46.472Z,1.37
2017-10-05T09:55:14.892Z,1.30
2017-10-05T09:57:43.238Z,1.93
2017-10-05T10:00:11.553Z,1.30
2017-10-05T10:02:40.696Z,1.33
2017-10-05T10:05:09.760Z,1.00
2017-10-05T10:07:38.129Z,1.30
2017-10-05T10:10:07.181Z,1.70
2017-10-05T10:12:35.529Z,1.70
2017-10-05T10:15:03.824Z,1.50
2017-10-05T10:17:32.211Z,1.10
2017-10-05T10:20:00.498Z,1.30
2017-10-05T10:22:28.852Z,1.10
2017-10-05T10:24:57.830Z,1.70
2017-10-05T10:27:26.234Z,1.33
2017-10-05T10:29:54.594Z,1.40
2017-10-05T10:32:23.663Z,1.43
2017-10-05T10:34:51.974Z,1.87
2017-10-05T10:37:20.320Z,1.67
2017-10-05T10:39:48.626Z,1.40
2017-10-05T10:42:16.946Z,1.30
2017-10-05T10:44:46.237Z,1.60
2017-10-05T10:47:14.801Z,1.83
2017-10-05T10:49:43.108Z,1.70
2017-10-05T10:52:11.444Z,1.10
2017-10-05T10:54:39.734Z,1.50
2017-10-05T10:57:08.076Z,1.90
2017-10-05T10:59:37.590Z,1.93
2017-10-05T11:02:05.981Z,1.10
2017-10-05T11:04:34.390Z,1.50
2017-10-05T11:07:02.681Z,1.40
2017-10-05T11:09:30.989Z,1.60
2017-10-05T11:11:59.429Z,1.67
2017-10-05T11:14:27.782Z,1.40
2017-10-05T11:16:56.093Z,2.63
2017-10-05T11:19:24.422Z,1.47
2017-10-05T11:21:52.741Z,1.40
2017-10-05T11:24:21.061Z,1.43
2017-10-05T11:26:50.133Z,1.17
2017-10-05T11:29:18.462Z,1.10
2017-10-05T11:31:46.893Z,1.03
2017-10-05T11:34:20.048Z,0.90
2017-10-05T11:36:48.373Z,1.17
2017-10-05T11:39:17.543Z,0.80
2017-10-05T11:41:45.860Z,0.97
2017-10-05T11:44:14.208Z,0.90
2017-10-05T11:46:42.497Z,1.10
2017-10-05T11:49:10.792Z,1.13
2017-10-05T11:51:39.129Z,1.10
2017-10-05T11:54:07.596Z,1.00
2017-10-05T11:56:35.935Z,1.00
2017-10-05T11:59:04.244Z,1.10
2017-10-05T12:01:33.329Z,1.00
2017-10-05T12:04:01.641Z,0.83
2017-10-05T12:06:29.983Z,0.87
2017-10-05T12:08:59.041Z,1.00
2017-10-05T12:11:27.416Z,0.97
2017-10-05T12:13:56.509Z,0.93
2017-10-05T12:16:24.812Z,1.47
2017-10-05T12:18:53.134Z,0.93
2017-10-05T12:21:22.225Z,0.87
2017-10-05T12:23:50.545Z,1.40
2017-10-05T12:26:18.878Z,1.17
2017-10-05T12:28:47.267Z,1.30
2017-10-05T12:31:15.560Z,1.30
2017-10-05T12:33:43.939Z,1.03
2017-10-05T12:36:12.254Z,0.73
2017-10-05T12:38:40.603Z,0.83
2017-10-05T12:41:09.667Z,0.70
2017-10-05T12:43:37.955Z,1.17
2017-10-05T12:46:06.327Z,0.70
2017-10-05T12:48:35.406Z,1.23
2017-10-05T12:51:04.024Z,1.00
2017-10-05T12:53:32.318Z,0.90
2017-10-05T12:56:00.636Z,1.20
2017-10-05T12:58:28.972Z,0.80
2017-10-05T13:00:57.308Z,0.93
2017-10-05T13:03:25.643Z,1.10
2017-10-05T13:05:53.949Z,0.97
2017-10-05T13:08:22.261Z,0.80
2017-10-05T13:10:50.607Z,1.00
2017-10-05T13:13:19.660Z,1.07
2017-10-05T13:15:48.153Z,1.00
2017-10-05T13:18:16.482Z,1.20
2017-10-05T13:20:45.289Z,1.00
2017-10-05T13:23:14.390Z,0.70
2017-10-05T13:25:42.687Z,0.70
2017-10-05T13:28:11.052Z,0.97
2017-10-05T13:30:39.377Z,0.60
2017-10-05T13:33:07.709Z,0.67
2017-10-05T13:35:36.061Z,1.03
2017-10-05T13:38:04.476Z,1.03
2017-10-05T13:40:32.796Z,1.10
2017-10-05T13:43:01.132Z,1.63
2017-10-05T13:45:29.492Z,1.00
2017-10-05T13:52:28.459Z,1.00
2017-10-05T13:55:02.472Z,0.90
2017-10-05T13:57:34.628Z,1.10
2017-10-05T14:00:05.020Z,1.40
2017-10-05T14:05:32.940Z,1.30
2017-10-05T14:08:03.401Z,1.57
2017-10-05T14:10:31.743Z,1.10
2017-10-05T14:13:23.657Z,1.30
2017-10-05T14:15:58.897Z,1.10
2017-10-05T14:18:27.277Z,0.90
2017-10-05T14:20:56.733Z,1.20
2017-10-05T14:23:36.461Z,1.13
2017-10-05T14:26:04.819Z,1.17
2017-10-05T14:28:35.337Z,1.60
2017-10-05T14:31:10.338Z,1.50
2017-10-05T14:33:39.034Z,1.73
2017-10-05T14:36:10.458Z,1.50
2017-10-05T14:38:38.835Z,1.70
2017-10-05T14:41:12.355Z,1.33
2017-10-05T14:43:46.100Z,1.83
2017-10-05T14:46:14.770Z,1.90
2017-10-05T14:48:47.550Z,1.77
2017-10-05T14:51:15.921Z,1.20
2017-10-05T14:53:44.316Z,0.90
2017-10-05T14:56:12.619Z,1.40
2017-10-05T14:58:43.737Z,2.00
2017-10-05T15:01:12.858Z,0.93
2017-10-05T15:03:43.247Z,1.10
2017-10-05T15:06:14.864Z,1.47
2017-10-05T15:08:43.954Z,1.43
2017-10-05T15:11:12.319Z,1.60
2017-10-05T15:13:40.626Z,1.43
2017-10-05T15:16:08.952Z,1.07
2017-10-05T15:18:37.249Z,1.10
2017-10-05T15:21:06.309Z,0.87
2017-10-05T15:23:35.734Z,1.20
2017-10-05T15:26:04.157Z,1.17
2017-10-05T15:28:33.313Z,1.30
2017-10-05T15:31:01.672Z,1.43
2017-10-05T15:33:31.825Z,1.40
2017-10-05T15:36:03.883Z,1.23
2017-10-05T15:38:33.101Z,1.60
2017-10-05T15:41:02.315Z,1.00
2017-10-05T15:43:31.675Z,1.07
2017-10-05T15:46:01.703Z,0.90
2017-10-05T15:48:31.768Z,0.97
2017-10-05T15:51:01.874Z,1.23
2017-10-05T15:53:31.752Z,1.10
2017-10-05T15:56:00.145Z,0.87
2017-10-05T15:58:31.510Z,0.87
2017-10-05T16:01:03.597Z,0.80
2017-10-05T16:03:31.912Z,1.10
2017-10-05T16:06:00.256Z,0.70
2017-10-05T16:08:28.647Z,0.50
2017-10-05T16:10:57.031Z,0.47
2017-10-05T16:13:26.404Z,0.60
2017-10-05T16:16:02.775Z,0.50
2017-10-05T16:18:31.924Z,0.63
2017-10-05T16:21:00.203Z,0.40
2017-10-05T16:23:28.485Z,0.80
2017-10-05T16:25:57.601Z,0.50
2017-10-05T16:28:25.896Z,0.80
2017-10-05T16:30:54.990Z,0.87
2017-10-05T16:33:23.358Z,0.80
2017-10-05T16:35:51.889Z,0.50
2017-10-05T16:38:21.331Z,0.70
2017-10-05T16:40:49.648Z,0.70
2017-10-05T16:43:17.971Z,0.60
2017-10-05T16:45:47.726Z,1.00
2017-10-05T16:48:16.024Z,0.80
2017-10-05T16:50:45.083Z,0.90
2017-10-05T16:53:13.384Z,0.60
2017-10-05T16:55:42.470Z,0.90
2017-10-05T16:58:11.540Z,1.10
2017-10-05T17:00:39.843Z,0.80
2017-10-05T17:03:08.235Z,0.90
2017-10-05T17:05:38.521Z,0.90
2017-10-05T17:08:07.671Z,1.20
2017-10-05T17:10:47.266Z,1.00
2017-10-05T17:13:17.670Z,0.70
2017-10-05T17:15:47.348Z,0.77
2017-10-05T17:18:15.868Z,1.03
2017-10-05T17:20:44.441Z,1.07
2017-10-05T17:23:13.753Z,0.73
2017-10-05T17:25:42.340Z,0.97
2017-10-05T17:28:17.664Z,0.70
2017-10-05T17:30:46.745Z,1.00
2017-10-05T17:33:15.200Z,0.70
2017-10-05T17:35:44.492Z,0.77
2017-10-05T17:38:12.820Z,1.17
2017-10-05T17:40:41.238Z,0.60
2017-10-05T17:43:09.570Z,0.80
2017-10-05T17:45:37.911Z,0.70
2017-10-05T17:48:06.280Z,0.93
2017-10-05T17:50:34.631Z,0.87
2017-10-05T17:53:03.070Z,0.97
2017-10-05T17:55:31.600Z,0.80
2017-10-05T17:58:00.772Z,1.17
2017-10-05T18:00:37.865Z,1.17
2017-10-05T18:03:06.457Z,0.90
2017-10-05T18:05:37.763Z,0.80
2017-10-05T18:08:06.311Z,0.87
2017-10-05T18:10:34.634Z,1.40
2017-10-05T18:13:03.011Z,0.93
2017-10-05T18:15:32.289Z,1.00
2017-10-05T18:18:01.396Z,1.30
2017-10-05T18:20:30.501Z,1.30
2017-10-05T18:23:00.376Z,1.33
2017-10-05T18:25:28.996Z,0.93
2017-10-05T18:27:58.286Z,0.97
2017-10-05T18:30:27.800Z,0.93
2017-10-05T18:33:02.876Z,0.80
2017-10-05T18:35:31.605Z,1.33
2017-10-05T18:38:03.201Z,1.00
2017-10-05T18:40:33.999Z,1.00
2017-10-05T18:43:02.467Z,0.97
2017-10-05T18:45:37.111Z,0.87
2017-10-05T18:48:05.548Z,1.17
2017-10-05T18:50:37.704Z,1.23
2017-10-05T18:53:08.294Z,1.03
2017-10-05T18:55:36.860Z,1.00
2017-10-05T18:58:05.944Z,1.13
2017-10-05T19:00:35.299Z,1.67
2017-10-05T19:03:03.642Z,1.70
2017-10-05T19:05:32.131Z,1.50
2017-10-05T19:08:03.443Z,1.13
2017-10-05T19:10:31.800Z,1.50
2017-10-05T19:13:00.169Z,1.40
2017-10-05T19:15:29.937Z,0.90
2017-10-05T19:17:58.294Z,1.50
2017-10-05T19:20:26.695Z,1.33
2017-10-05T19:22:55.044Z,1.50
2017-10-05T19:25:23.405Z,1.30
2017-10-05T19:27:53.949Z,1.30
2017-10-05T19:30:24.686Z,1.50
2017-10-05T19:32:54.414Z,1.80
2017-10-05T19:35:39.004Z,1.20
2017-10-05T19:38:08.522Z,1.93
2017-10-05T19:40:46.083Z,1.50
2017-10-05T19:43:18.483Z,1.40
2017-10-05T19:45:53.149Z,1.60
2017-10-05T19:48:29.214Z,1.30
2017-10-05T19:50:57.599Z,1.73
2017-10-05T19:53:25.996Z,1.83
2017-10-05T19:55:56.227Z,1.53
2017-10-05T19:58:24.991Z,1.27
2017-10-05T20:00:55.401Z,1.80
2017-10-05T20:03:24.791Z,1.53
2017-10-05T20:05:53.167Z,1.30
2017-10-05T20:08:21.606Z,1.50
2017-10-05T20:10:51.127Z,1.63
2017-10-05T20:13:36.160Z,1.33
2017-10-05T20:19:19.445Z,2.17
2017-10-05T20:21:48.564Z,2.03
2017-10-05T20:24:24.333Z,1.60
2017-10-05T20:26:52.671Z,1.70
2017-10-05T20:29:25.336Z,2.27
2017-10-05T20:31:59.582Z,2.33
2017-10-05T20:34:27.278Z,1.97
2017-10-05T20:36:56.458Z,1.87
2017-10-05T20:39:24.776Z,1.90
2017-10-05T20:41:53.108Z,2.00
2017-10-05T20:44:21.609Z,2.30
2017-10-05T20:46:49.942Z,2.47
2017-10-05T20:49:18.442Z,1.97
2017-10-05T20:51:46.754Z,1.80
2017-10-05T20:54:15.115Z,2.10
2017-10-05T20:56:43.645Z,1.80
2017-10-05T20:59:18.665Z,2.87
2017-10-05T21:01:47.020Z,2.00
2017-10-05T21:04:15.374Z,2.00
2017-10-05T21:06:44.506Z,1.60
2017-10-05T21:09:12.848Z,2.33
2017-10-05T21:11:41.188Z,1.80
2017-10-05T21:14:10.447Z,1.70
2017-10-05T21:16:38.771Z,2.27
2017-10-05T21:19:07.230Z,1.90
2017-10-05T21:21:35.604Z,2.40
2017-10-05T21:24:04.007Z,1.70
2017-10-05T21:26:32.332Z,1.70
2017-10-05T21:29:01.441Z,1.87
2017-10-05T21:31:30.050Z,2.00
2017-10-05T21:33:58.362Z,1.33
2017-10-05T21:36:30.974Z,2.03
2017-10-05T21:39:00.074Z,2.63
2017-10-05T21:41:28.431Z,1.70
2017-10-05T21:43:58.202Z,2.00
2017-10-05T21:46:26.535Z,2.10
2017-10-05T21:48:54.886Z,2.67
2017-10-05T21:51:23.988Z,2.00
2017-10-05T21:53:52.294Z,1.43
2017-10-05T21:56:21.087Z,2.27
2017-10-05T21:58:49.420Z,1.90
2017-10-05T22:01:18.502Z,2.13
2017-10-05T22:03:46.851Z,2.10
2017-10-05T22:06:15.181Z,2.37
2017-10-05T22:08:43.485Z,2.60
2017-10-05T22:11:11.861Z,2.87
2017-10-05T22:13:40.985Z,1.90
2017-10-05T22:16:10.138Z,1.90
2017-10-05T22:18:38.457Z,2.00
2017-10-05T22:21:06.762Z,2.13
2017-10-05T22:23:35.121Z,2.80
2017-10-05T22:26:04.299Z,2.47
2017-10-05T22:28:32.660Z,2.10
2017-10-05T22:31:00.963Z,2.07
2017-10-05T22:33:29.294Z,2.17
2017-10-05T22:35:57.622Z,2.90
2017-10-05T22:38:26.210Z,2.20
2017-10-05T22:40:55.443Z,2.63
2017-10-05T22:43:23.780Z,2.40
2017-10-05T22:45:52.073Z,2.50
2017-10-05T22:48:20.418Z,2.60
2017-10-05T22:50:48.796Z,2.10
2017-10-05T22:53:17.882Z,2.53
2017-10-05T22:55:46.219Z,2.57
2017-10-05T22:58:14.552Z,2.30
2017-10-05T23:00:43.721Z,2.63
2017-10-05T23:03:12.058Z,2.27
2017-10-05T23:05:41.718Z,2.43
2017-10-05T23:08:10.782Z,2.00
2017-10-05T23:10:39.122Z,2.57
2017-10-05T23:13:07.460Z,2.00
2017-10-05T23:15:35.928Z,2.50
2017-10-05T23:18:05.117Z,2.00
2017-10-05T23:20:33.422Z,1.60
2017-10-05T23:23:01.761Z,1.63
2017-10-05T23:25:30.866Z,2.20
2017-10-05T23:27:59.170Z,1.80
2017-10-05T23:30:27.510Z,2.43
2017-10-05T23:32:56.593Z,2.27
2017-10-05T23:35:24.889Z,2.20
2017-10-05T23:37:53.233Z,2.00
2017-10-05T23:40:21.542Z,1.90
2017-10-05T23:42:50.617Z,1.97
2017-10-05T23:45:18.949Z,2.53
2017-10-05T23:47:47.268Z,1.97
2017-10-05T23:50:15.560Z,1.87
2017-10-05T23:52:43.866Z,2.23
2017-10-05T23:55:12.176Z,2.10
2017-10-05T23:57:40.509Z,1.50
